Chapmantown, California
Current Conditions -  °F | °C
As of 2:16 AM on Thursday 18 Dec 2014 (Local Time) from KOVE Reporting Station
Overcast Overcast  
Wind Chill: 50°   Ceiling: 3500
Heat Index: 50°   Visibility: 10mi
Dew Point: 47°   Wind: 5mph
Humidity: 89%   Direction: 70°ENE
Pressure: 30.14"   Gusts: NA
Location:  39.71°N, 121.809°W
Report Text: KOVE 181016Z AUTO 07004KT 10SM SCT024 BKN035 OVC050 10/08 A3014 RMK AO2 T01000083
Loading
Personal Weather Stations






























Interactive Weather Map New forecast layout! Learn more

10-Day Weather Forecast

Advertisements
Track Severe Weather on mobile